sensor_id;sensor_type;location;lat;lon;timestamp;pressure;altitude;pressure_sealevel;temperature;humidity
21361;BME280;10839;43.206;23.550;2022-08-21T00:01:37;96496.56;;;21.90;83.42
21361;BME280;10839;43.206;23.550;2022-08-21T00:04:08;96498.72;;;21.98;82.07
21361;BME280;10839;43.206;23.550;2022-08-21T00:06:35;96502.00;;;22.00;82.23
21361;BME280;10839;43.206;23.550;2022-08-21T00:09:04;96500.16;;;21.85;89.97
21361;BME280;10839;43.206;23.550;2022-08-21T00:11:31;96506.22;;;21.82;89.58
21361;BME280;10839;43.206;23.550;2022-08-21T00:13:57;96514.31;;;22.07;86.24
21361;BME280;10839;43.206;23.550;2022-08-21T00:16:23;96523.91;;;22.48;82.42
21361;BME280;10839;43.206;23.550;2022-08-21T00:18:49;96527.25;;;22.40;86.37
21361;BME280;10839;43.206;23.550;2022-08-21T00:21:15;96531.91;;;22.40;90.26
21361;BME280;10839;43.206;23.550;2022-08-21T00:23:42;96532.13;;;22.48;93.57
21361;BME280;10839;43.206;23.550;2022-08-21T00:26:08;96526.06;;;22.51;95.05
21361;BME280;10839;43.206;23.550;2022-08-21T00:28:34;96535.41;;;22.50;97.34
21361;BME280;10839;43.206;23.550;2022-08-21T00:31:00;96542.81;;;22.55;98.35
21361;BME280;10839;43.206;23.550;2022-08-21T00:33:30;96543.88;;;22.59;98.85
21361;BME280;10839;43.206;23.550;2022-08-21T00:35:56;96531.56;;;22.51;100.00
21361;BME280;10839;43.206;23.550;2022-08-21T00:38:22;96539.78;;;22.56;100.00
21361;BME280;10839;43.206;23.550;2022-08-21T00:40:57;96529.91;;;22.50;100.00
21361;BME280;10839;43.206;23.550;2022-08-21T00:43:27;96532.09;;;22.58;100.00
21361;BME280;10839;43.206;23.550;2022-08-21T00:45:54;96543.56;;;22.65;100.00
21361;BME280;10839;43.206;23.550;2022-08-21T00:48:21;96540.78;;;22.70;100.00
21361;BME280;10839;43.206;23.550;2022-08-21T00:51:10;96552.38;;;22.57;100.00
21361;BME280;10839;43.206;23.550;2022-08-21T00:53:43;96546.34;;;22.60;100.00
21361;BME280;10839;43.206;23.550;2022-08-21T00:56:10;96546.81;;;22.67;100.00
21361;BME280;10839;43.206;23.550;2022-08-21T00:58:38;96543.47;;;22.75;100.00
21361;BME280;10839;43.206;23.550;2022-08-21T01:01:07;96540.69;;;22.81;100.00
21361;BME280;10839;43.206;23.550;2022-08-21T01:03:33;96544.03;;;22.72;100.00
21361;BME280;10839;43.206;23.550;2022-08-21T01:05:59;96547.97;;;22.61;100.00
21361;BME280;10839;43.206;23.550;2022-08-21T01:08:25;96554.59;;;22.55;100.00
21361;BME280;10839;43.206;23.550;2022-08-21T01:10:52;96566.63;;;22.59;100.00
21361;BME280;10839;43.206;23.550;2022-08-21T01:13:25;96545.75;;;22.63;100.00
21361;BME280;10839;43.206;23.550;2022-08-21T01:15:54;96549.63;;;22.57;100.00
21361;BME280;10839;43.206;23.550;2022-08-21T01:18:22;96543.06;;;22.58;100.00
21361;BME280;10839;43.206;23.550;2022-08-21T01:23:28;96544.75;;;22.44;100.00
21361;BME280;10839;43.206;23.550;2022-08-21T01:25:54;96545.53;;;22.50;100.00
21361;BME280;10839;43.206;23.550;2022-08-21T01:28:21;96546.88;;;22.57;100.00
21361;BME280;10839;43.206;23.550;2022-08-21T01:30:48;96548.53;;;22.58;100.00
21361;BME280;10839;43.206;23.550;2022-08-21T01:33:18;96547.47;;;22.54;100.00
21361;BME280;10839;43.206;23.550;2022-08-21T01:35:46;96549.91;;;22.51;100.00
21361;BME280;10839;43.206;23.550;2022-08-21T01:38:12;96522.50;;;22.51;100.00
21361;BME280;10839;43.206;23.550;2022-08-21T01:40:38;96537.41;;;22.78;100.00
21361;BME280;10839;43.206;23.550;2022-08-21T01:43:03;96534.25;;;22.61;100.00
21361;BME280;10839;43.206;23.550;2022-08-21T01:45:30;96538.69;;;22.52;100.00
21361;BME280;10839;43.206;23.550;2022-08-21T01:47:56;96535.69;;;22.54;100.00
21361;BME280;10839;43.206;23.550;2022-08-21T01:50:40;96516.25;;;22.45;100.00
21361;BME280;10839;43.206;23.550;2022-08-21T01:53:06;96523.94;;;22.43;100.00
21361;BME280;10839;43.206;23.550;2022-08-21T01:55:31;96518.25;;;22.30;100.00
21361;BME280;10839;43.206;23.550;2022-08-21T01:57:58;96526.72;;;22.38;100.00
21361;BME280;10839;43.206;23.550;2022-08-21T02:00:24;96518.44;;;22.43;100.00
21361;BME280;10839;43.206;23.550;2022-08-21T02:02:51;96504.19;;;22.41;100.00
21361;BME280;10839;43.206;23.550;2022-08-21T02:05:18;96504.19;;;22.41;100.00
21361;BME280;10839;43.206;23.550;2022-08-21T02:07:49;96511.81;;;22.49;100.00
21361;BME280;10839;43.206;23.550;2022-08-21T02:10:19;96507.97;;;22.50;100.00
21361;BME280;10839;43.206;23.550;2022-08-21T02:12:47;96504.28;;;22.31;100.00
21361;BME280;10839;43.206;23.550;2022-08-21T02:15:13;96504.53;;;22.35;100.00
21361;BME280;10839;43.206;23.550;2022-08-21T02:17:50;96501.50;;;22.36;100.00
21361;BME280;10839;43.206;23.550;2022-08-21T02:20:20;96507.97;;;22.50;100.00
21361;BME280;10839;43.206;23.550;2022-08-21T02:22:46;96506.38;;;22.44;100.00
21361;BME280;10839;43.206;23.550;2022-08-21T02:25:12;96508.53;;;22.52;100.00
21361;BME280;10839;43.206;23.550;2022-08-21T02:27:42;96508.63;;;22.37;100.00
21361;BME280;10839;43.206;23.550;2022-08-21T02:30:12;96512.38;;;22.46;100.00
21361;BME280;10839;43.206;23.550;2022-08-21T02:32:38;96509.09;;;22.44;100.00
21361;BME280;10839;43.206;23.550;2022-08-21T02:35:05;96518.78;;;22.37;100.00
21361;BME280;10839;43.206;23.550;2022-08-21T02:37:31;96504.78;;;22.38;100.00
21361;BME280;10839;43.206;23.550;2022-08-21T02:39:56;96509.28;;;22.19;100.00
21361;BME280;10839;43.206;23.550;2022-08-21T02:42:22;96511.97;;;22.24;100.00
21361;BME280;10839;43.206;23.550;2022-08-21T02:44:48;96512.06;;;22.09;100.00
21361;BME280;10839;43.206;23.550;2022-08-21T02:47:14;96499.44;;;22.18;100.00
21361;BME280;10839;43.206;23.550;2022-08-21T02:49:39;96498.59;;;22.18;100.00
21361;BME280;10839;43.206;23.550;2022-08-21T02:52:05;96513.47;;;22.07;100.00
21361;BME280;10839;43.206;23.550;2022-08-21T02:54:31;96523.81;;;22.20;100.00
21361;BME280;10839;43.206;23.550;2022-08-21T02:56:57;96540.22;;;21.61;100.00
21361;BME280;10839;43.206;23.550;2022-08-21T02:59:23;96538.41;;;21.26;100.00
21361;BME280;10839;43.206;23.550;2022-08-21T03:01:49;96528.22;;;21.52;100.00
21361;BME280;10839;43.206;23.550;2022-08-21T03:04:14;96531.44;;;21.74;100.00
21361;BME280;10839;43.206;23.550;2022-08-21T03:06:40;96534.28;;;21.39;100.00
21361;BME280;10839;43.206;23.550;2022-08-21T03:09:06;96534.34;;;21.09;100.00
21361;BME280;10839;43.206;23.550;2022-08-21T03:11:32;96536.44;;;21.47;100.00
21361;BME280;10839;43.206;23.550;2022-08-21T03:13:57;96530.91;;;21.77;97.94
21361;BME280;10839;43.206;23.550;2022-08-21T03:16:23;96528.06;;;21.97;96.94
21361;BME280;10839;43.206;23.550;2022-08-21T03:18:49;96536.28;;;21.97;97.25
21361;BME280;10839;43.206;23.550;2022-08-21T03:21:15;96536.78;;;22.04;96.63
21361;BME280;10839;43.206;23.550;2022-08-21T03:23:41;96547.81;;;21.94;97.30
21361;BME280;10839;43.206;23.550;2022-08-21T03:26:07;96546.16;;;21.93;96.62
21361;BME280;10839;43.206;23.550;2022-08-21T03:28:34;96552.16;;;22.00;96.44
21361;BME280;10839;43.206;23.550;2022-08-21T03:31:00;96561.38;;;22.14;94.59
21361;BME280;10839;43.206;23.550;2022-08-21T03:33:25;96557.03;;;22.08;93.73
21361;BME280;10839;43.206;23.550;2022-08-21T03:35:58;96563.59;;;21.33;96.36
21361;BME280;10839;43.206;23.550;2022-08-21T03:38:28;96571.25;;;21.36;97.05
21361;BME280;10839;43.206;23.550;2022-08-21T03:40:54;96565.50;;;21.18;97.18
21361;BME280;10839;43.206;23.550;2022-08-21T03:43:20;96581.63;;;21.34;96.54
21361;BME280;10839;43.206;23.550;2022-08-21T03:45:46;96575.94;;;21.11;97.55
21361;BME280;10839;43.206;23.550;2022-08-21T03:48:12;96576.44;;;21.38;96.21
21361;BME280;10839;43.206;23.550;2022-08-21T03:50:43;96576.41;;;21.43;95.03
21361;BME280;10839;43.206;23.550;2022-08-21T03:53:11;96577.56;;;21.07;97.20
21361;BME280;10839;43.206;23.550;2022-08-21T03:55:38;96576.47;;;21.18;97.18
21361;BME280;10839;43.206;23.550;2022-08-21T03:58:03;96564.44;;;21.14;96.84
21361;BME280;10839;43.206;23.550;2022-08-21T04:00:29;96579.75;;;21.20;97.44
21361;BME280;10839;43.206;23.550;2022-08-21T04:02:55;96575.81;;;21.66;93.65
21361;BME280;10839;43.206;23.550;2022-08-21T04:05:23;96566.63;;;21.22;96.06
21361;BME280;10839;43.206;23.550;2022-08-21T04:08:01;96565.50;;;21.18;96.40
21361;BME280;10839;43.206;23.550;2022-08-21T04:10:29;96567.19;;;21.19;95.75
21361;BME280;10839;43.206;23.550;2022-08-21T04:12:56;96562.25;;;21.26;95.98
21361;BME280;10839;43.206;23.550;2022-08-21T04:15:23;96567.38;;;21.52;93.76
21361;BME280;10839;43.206;23.550;2022-08-21T04:17:50;96561.63;;;21.49;93.87
21361;BME280;10839;43.206;23.550;2022-08-21T04:20:17;96552.66;;;22.12;89.07
21361;BME280;10839;43.206;23.550;2022-08-21T04:22:43;96552.19;;;21.95;88.78
21361;BME280;10839;43.206;23.550;2022-08-21T04:25:11;96550.97;;;21.42;91.60
21361;BME280;10839;43.206;23.550;2022-08-21T04:27:37;96550.16;;;21.37;92.51
21361;BME280;10839;43.206;23.550;2022-08-21T04:30:05;96545.25;;;21.29;91.73
21361;BME280;10839;43.206;23.550;2022-08-21T04:32:31;96540.91;;;21.08;93.12
21361;BME280;10839;43.206;23.550;2022-08-21T04:35:08;96541.38;;;21.50;89.47
21361;BME280;10839;43.206;23.550;2022-08-21T04:37:35;96542.72;;;22.65;82.73
21361;BME280;10839;43.206;23.550;2022-08-21T04:40:01;96540.22;;;23.31;77.99
21361;BME280;10839;43.206;23.550;2022-08-21T04:42:28;96531.13;;;24.06;75.26
21361;BME280;10839;43.206;23.550;2022-08-21T04:44:54;96517.19;;;24.58;72.45
21361;BME280;10839;43.206;23.550;2022-08-21T04:47:22;96535.63;;;24.76;71.23
21361;BME280;10839;43.206;23.550;2022-08-21T04:49:49;96532.09;;;24.89;71.12
21361;BME280;10839;43.206;23.550;2022-08-21T04:52:19;96536.13;;;24.97;69.88
21361;BME280;10839;43.206;23.550;2022-08-21T04:54:47;96525.13;;;24.60;71.63
21361;BME280;10839;43.206;23.550;2022-08-21T04:57:15;96535.81;;;24.98;69.52
21361;BME280;10839;43.206;23.550;2022-08-21T04:59:47;96526.66;;;25.49;66.64
21361;BME280;10839;43.206;23.550;2022-08-21T05:02:15;96524.44;;;25.64;64.90
21361;BME280;10839;43.206;23.550;2022-08-21T05:04:44;96525.03;;;26.29;61.94
21361;BME280;10839;43.206;23.550;2022-08-21T05:07:16;96531.72;;;27.08;58.85
21361;BME280;10839;43.206;23.550;2022-08-21T05:09:42;96537.44;;;28.03;56.01
21361;BME280;10839;43.206;23.550;2022-08-21T05:12:09;96533.78;;;28.42;54.00
21361;BME280;10839;43.206;23.550;2022-08-21T05:14:36;96521.81;;;28.89;51.98
21361;BME280;10839;43.206;23.550;2022-08-21T05:17:02;96524.38;;;29.28;50.78
21361;BME280;10839;43.206;23.550;2022-08-21T05:19:28;96519.22;;;30.11;48.35
21361;BME280;10839;43.206;23.550;2022-08-21T05:21:54;96525.63;;;30.32;48.07
21361;BME280;10839;43.206;23.550;2022-08-21T05:24:20;96531.25;;;30.15;47.54
21361;BME280;10839;43.206;23.550;2022-08-21T05:26:46;96526.22;;;30.46;47.42
21361;BME280;10839;43.206;23.550;2022-08-21T05:29:13;96523.75;;;31.26;45.10
21361;BME280;10839;43.206;23.550;2022-08-21T05:31:39;96532.78;;;31.56;43.95
21361;BME280;10839;43.206;23.550;2022-08-21T05:34:05;96522.63;;;30.66;46.05
21361;BME280;10839;43.206;23.550;2022-08-21T05:36:31;96522.34;;;30.38;46.50
21361;BME280;10839;43.206;23.550;2022-08-21T05:38:57;96520.00;;;30.90;44.91
21361;BME280;10839;43.206;23.550;2022-08-21T05:41:23;96525.84;;;31.50;43.54
21361;BME280;10839;43.206;23.550;2022-08-21T05:43:49;96523.53;;;32.85;41.24
21361;BME280;10839;43.206;23.550;2022-08-21T05:46:15;96514.56;;;33.31;40.58
21361;BME280;10839;43.206;23.550;2022-08-21T05:48:41;96509.38;;;32.78;41.76
21361;BME280;10839;43.206;23.550;2022-08-21T05:51:14;96508.38;;;33.65;39.25
21361;BME280;10839;43.206;23.550;2022-08-21T05:53:42;96502.78;;;34.27;37.96
21361;BME280;10839;43.206;23.550;2022-08-21T05:56:09;96508.59;;;35.04;36.57
21361;BME280;10839;43.206;23.550;2022-08-21T05:58:35;96508.13;;;34.01;38.25
21361;BME280;10839;43.206;23.550;2022-08-21T06:01:02;96506.59;;;34.69;36.77
21361;BME280;10839;43.206;23.550;2022-08-21T06:03:32;96500.78;;;35.13;36.41
21361;BME280;10839;43.206;23.550;2022-08-21T06:05:59;96509.00;;;35.44;36.14
21361;BME280;10839;43.206;23.550;2022-08-21T06:08:26;96519.03;;;36.80;33.95
21361;BME280;10839;43.206;23.550;2022-08-21T06:10:54;96513.72;;;37.01;33.33
21361;BME280;10839;43.206;23.550;2022-08-21T06:13:21;96504.66;;;37.45;32.91
21361;BME280;10839;43.206;23.550;2022-08-21T06:15:48;96507.72;;;38.06;32.33
21361;BME280;10839;43.206;23.550;2022-08-21T06:18:14;96510.22;;;37.41;33.09
21361;BME280;10839;43.206;23.550;2022-08-21T06:20:41;96502.19;;;37.40;33.44
21361;BME280;10839;43.206;23.550;2022-08-21T06:23:08;96506.03;;;37.25;33.73
21361;BME280;10839;43.206;23.550;2022-08-21T06:25:34;96513.16;;;36.63;34.77
21361;BME280;10839;43.206;23.550;2022-08-21T06:28:08;96506.84;;;36.21;35.33
21361;BME280;10839;43.206;23.550;2022-08-21T06:30:36;96500.69;;;36.86;33.94
21361;BME280;10839;43.206;23.550;2022-08-21T06:33:03;96512.97;;;36.52;35.35
21361;BME280;10839;43.206;23.550;2022-08-21T06:35:29;96510.91;;;36.75;35.15
21361;BME280;10839;43.206;23.550;2022-08-21T06:37:56;96514.38;;;36.91;35.01
21361;BME280;10839;43.206;23.550;2022-08-21T06:40:23;96510.97;;;37.35;34.77
21361;BME280;10839;43.206;23.550;2022-08-21T06:42:49;96520.50;;;37.27;34.62
21361;BME280;10839;43.206;23.550;2022-08-21T06:45:15;96515.53;;;37.83;34.36
21361;BME280;10839;43.206;23.550;2022-08-21T06:47:41;96525.38;;;38.03;33.06
21361;BME280;10839;43.206;23.550;2022-08-21T06:50:07;96526.78;;;37.50;33.93
21361;BME280;10839;43.206;23.550;2022-08-21T06:52:38;96536.47;;;36.93;34.06
21361;BME280;10839;43.206;23.550;2022-08-21T06:55:06;96526.69;;;35.67;36.23
21361;BME280;10839;43.206;23.550;2022-08-21T06:57:33;96531.13;;;34.10;39.31
21361;BME280;10839;43.206;23.550;2022-08-21T06:59:59;96535.72;;;33.32;40.91
21361;BME280;10839;43.206;23.550;2022-08-21T07:02:25;96535.41;;;32.82;42.70
21361;BME280;10839;43.206;23.550;2022-08-21T07:04:51;96535.06;;;33.23;42.02
21361;BME280;10839;43.206;23.550;2022-08-21T07:07:17;96541.69;;;32.79;42.63
21361;BME280;10839;43.206;23.550;2022-08-21T07:09:43;96535.38;;;32.54;42.87
21361;BME280;10839;43.206;23.550;2022-08-21T07:12:09;96545.66;;;32.29;43.95
21361;BME280;10839;43.206;23.550;2022-08-21T07:14:36;96538.13;;;31.61;45.80
21361;BME280;10839;43.206;23.550;2022-08-21T07:17:02;96542.16;;;31.19;45.88
21361;BME280;10839;43.206;23.550;2022-08-21T07:19:28;96543.16;;;31.35;46.31
21361;BME280;10839;43.206;23.550;2022-08-21T07:21:58;96546.47;;;30.96;47.39
21361;BME280;10839;43.206;23.550;2022-08-21T07:24:25;96540.91;;;30.96;47.93
21361;BME280;10839;43.206;23.550;2022-08-21T07:26:51;96547.50;;;31.24;48.19
21361;BME280;10839;43.206;23.550;2022-08-21T07:29:17;96543.88;;;31.32;47.59
21361;BME280;10839;43.206;23.550;2022-08-21T07:31:44;96545.19;;;31.26;47.91
21361;BME280;10839;43.206;23.550;2022-08-21T07:34:10;96536.66;;;30.49;49.55
21361;BME280;10839;43.206;23.550;2022-08-21T07:36:36;96535.81;;;30.28;50.81
21361;BME280;10839;43.206;23.550;2022-08-21T07:39:02;96540.06;;;30.17;51.32
21361;BME280;10839;43.206;23.550;2022-08-21T07:41:29;96532.56;;;30.26;51.59
21361;BME280;10839;43.206;23.550;2022-08-21T07:43:59;96540.75;;;30.92;49.59
21361;BME280;10839;43.206;23.550;2022-08-21T07:46:25;96530.66;;;30.88;49.52
21361;BME280;10839;43.206;23.550;2022-08-21T07:48:52;96536.06;;;30.64;50.18
21361;BME280;10839;43.206;23.550;2022-08-21T07:51:20;96532.31;;;30.60;50.02
21361;BME280;10839;43.206;23.550;2022-08-21T07:53:49;96520.63;;;31.28;48.44
21361;BME280;10839;43.206;23.550;2022-08-21T07:56:15;96532.22;;;32.56;46.26
21361;BME280;10839;43.206;23.550;2022-08-21T07:58:41;96525.13;;;33.10;44.30
21361;BME280;10839;43.206;23.550;2022-08-21T08:01:07;96522.94;;;33.74;42.74
21361;BME280;10839;43.206;23.550;2022-08-21T08:03:33;96521.31;;;34.66;40.46
21361;BME280;10839;43.206;23.550;2022-08-21T08:05:59;96521.22;;;34.63;39.09
21361;BME280;10839;43.206;23.550;2022-08-21T08:08:25;96530.91;;;35.00;38.56
21361;BME280;10839;43.206;23.550;2022-08-21T08:10:53;96534.16;;;35.82;37.78
21361;BME280;10839;43.206;23.550;2022-08-21T08:13:19;96535.09;;;36.57;36.58
21361;BME280;10839;43.206;23.550;2022-08-21T08:15:45;96520.19;;;35.63;37.41
21361;BME280;10839;43.206;23.550;2022-08-21T08:18:11;96525.31;;;35.38;36.90
21361;BME280;10839;43.206;23.550;2022-08-21T08:20:37;96520.91;;;34.83;38.47
21361;BME280;10839;43.206;23.550;2022-08-21T08:23:03;96519.84;;;34.07;39.31
21361;BME280;10839;43.206;23.550;2022-08-21T08:25:29;96519.00;;;33.75;39.84
21361;BME280;10839;43.206;23.550;2022-08-21T08:27:54;96520.75;;;32.97;42.40
21361;BME280;10839;43.206;23.550;2022-08-21T08:30:20;96513.03;;;33.61;41.38
21361;BME280;10839;43.206;23.550;2022-08-21T08:32:47;96517.75;;;34.85;38.11
21361;BME280;10839;43.206;23.550;2022-08-21T08:35:13;96515.25;;;34.45;38.73
21361;BME280;10839;43.206;23.550;2022-08-21T08:37:40;96512.75;;;34.59;38.30
21361;BME280;10839;43.206;23.550;2022-08-21T08:40:17;96513.44;;;34.06;38.60
21361;BME280;10839;43.206;23.550;2022-08-21T08:42:46;96501.50;;;33.47;40.23
21361;BME280;10839;43.206;23.550;2022-08-21T08:45:16;96505.69;;;34.15;40.11
21361;BME280;10839;43.206;23.550;2022-08-21T08:47:47;96498.72;;;35.48;38.30
21361;BME280;10839;43.206;23.550;2022-08-21T08:50:48;96504.84;;;34.80;38.85
21361;BME280;10839;43.206;23.550;2022-08-21T08:53:19;96505.84;;;35.26;37.79
21361;BME280;10839;43.206;23.550;2022-08-21T08:55:48;96501.16;;;34.26;39.83
21361;BME280;10839;43.206;23.550;2022-08-21T08:58:24;96500.25;;;33.91;40.70
21361;BME280;10839;43.206;23.550;2022-08-21T09:00:54;96497.53;;;33.48;41.04
21361;BME280;10839;43.206;23.550;2022-08-21T09:03:22;96504.03;;;33.52;41.58
21361;BME280;10839;43.206;23.550;2022-08-21T09:06:16;96501.56;;;33.07;42.36
21361;BME280;10839;43.206;23.550;2022-08-21T09:08:54;96500.50;;;31.88;45.56
21361;BME280;10839;43.206;23.550;2022-08-21T09:12:29;96499.84;;;32.15;44.77
21361;BME280;10839;43.206;23.550;2022-08-21T09:26:06;96494.63;;;32.25;45.28
21361;BME280;10839;43.206;23.550;2022-08-21T09:28:35;96488.47;;;32.08;45.15
21361;BME280;10839;43.206;23.550;2022-08-21T09:31:05;96492.94;;;31.76;45.81
21361;BME280;10839;43.206;23.550;2022-08-21T09:33:32;96490.25;;;32.64;44.29
21361;BME280;10839;43.206;23.550;2022-08-21T09:35:58;96480.78;;;33.79;42.45
21361;BME280;10839;43.206;23.550;2022-08-21T09:41:02;96477.53;;;34.39;41.34
21361;BME280;10839;43.206;23.550;2022-08-21T09:43:29;96485.16;;;34.93;40.15
21361;BME280;10839;43.206;23.550;2022-08-21T09:46:11;96478.09;;;34.29;40.21
21361;BME280;10839;43.206;23.550;2022-08-21T09:51:17;96472.66;;;33.43;41.73
21361;BME280;10839;43.206;23.550;2022-08-21T09:53:50;96454.69;;;33.56;41.42
21361;BME280;10839;43.206;23.550;2022-08-21T09:56:33;96470.00;;;34.94;39.89
21361;BME280;10839;43.206;23.550;2022-08-21T09:59:29;96460.69;;;35.28;38.28
21361;BME280;10839;43.206;23.550;2022-08-21T10:02:00;96466.19;;;35.02;38.63
21361;BME280;10839;43.206;23.550;2022-08-21T10:04:34;96466.28;;;35.28;37.77
21361;BME280;10839;43.206;23.550;2022-08-21T10:07:11;96460.00;;;34.23;39.67
21361;BME280;10839;43.206;23.550;2022-08-21T10:09:38;96455.09;;;33.42;41.62
21361;BME280;10839;43.206;23.550;2022-08-21T10:15:09;96453.25;;;32.52;42.99
21361;BME280;10839;43.206;23.550;2022-08-21T10:17:53;96450.72;;;32.47;43.21
21361;BME280;10839;43.206;23.550;2022-08-21T10:26:44;96440.94;;;30.99;46.56
21361;BME280;10839;43.206;23.550;2022-08-21T10:37:31;96430.78;;;32.20;44.44
21361;BME280;10839;43.206;23.550;2022-08-21T10:40:25;96422.91;;;31.98;43.68
21361;BME280;10839;43.206;23.550;2022-08-21T10:48:38;96417.03;;;34.47;40.18
21361;BME280;10839;43.206;23.550;2022-08-21T10:54:03;96410.19;;;32.77;42.11
21361;BME280;10839;43.206;23.550;2022-08-21T10:56:35;96404.53;;;33.01;42.18
21361;BME280;10839;43.206;23.550;2022-08-21T11:01:46;96410.16;;;31.49;45.68
21361;BME280;10839;43.206;23.550;2022-08-21T11:06:52;96410.16;;;31.97;44.41
21361;BME280;10839;43.206;23.550;2022-08-21T11:09:22;96400.16;;;32.08;44.91
21361;BME280;10839;43.206;23.550;2022-08-21T11:11:57;96397.13;;;32.13;44.61
21361;BME280;10839;43.206;23.550;2022-08-21T11:17:13;96401.44;;;31.63;45.81
21361;BME280;10839;43.206;23.550;2022-08-21T11:19:49;96385.53;;;31.27;46.13
21361;BME280;10839;43.206;23.550;2022-08-21T11:25:00;96386.03;;;31.65;45.78
21361;BME280;10839;43.206;23.550;2022-08-21T11:27:49;96382.03;;;32.14;44.26
21361;BME280;10839;43.206;23.550;2022-08-21T11:30:16;96371.41;;;31.56;46.29
21361;BME280;10839;43.206;23.550;2022-08-21T11:33:14;96371.59;;;32.23;45.95
21361;BME280;10839;43.206;23.550;2022-08-21T11:36:02;96370.03;;;31.62;46.29
21361;BME280;10839;43.206;23.550;2022-08-21T11:38:36;96362.03;;;31.37;46.80
21361;BME280;10839;43.206;23.550;2022-08-21T11:41:17;96368.22;;;31.09;47.58
21361;BME280;10839;43.206;23.550;2022-08-21T11:43:53;96371.34;;;31.08;47.39
21361;BME280;10839;43.206;23.550;2022-08-21T11:46:33;96371.78;;;30.86;47.18
21361;BME280;10839;43.206;23.550;2022-08-21T11:49:42;96358.50;;;30.71;47.84
21361;BME280;10839;43.206;23.550;2022-08-21T11:55:02;96353.84;;;30.22;49.95
21361;BME280;10839;43.206;23.550;2022-08-21T11:57:35;96351.88;;;30.31;50.77
21361;BME280;10839;43.206;23.550;2022-08-21T12:00:10;96353.72;;;30.18;51.87
21361;BME280;10839;43.206;23.550;2022-08-21T12:02:45;96354.13;;;29.87;55.23
21361;BME280;10839;43.206;23.550;2022-08-21T12:05:26;96352.63;;;29.69;58.69
21361;BME280;10839;43.206;23.550;2022-08-21T12:08:15;96348.03;;;29.73;58.83
21361;BME280;10839;43.206;23.550;2022-08-21T12:11:07;96339.19;;;29.13;64.43
21361;BME280;10839;43.206;23.550;2022-08-21T12:13:39;96343.16;;;28.95;67.45
21361;BME280;10839;43.206;23.550;2022-08-21T12:16:13;96345.41;;;29.02;67.14
21361;BME280;10839;43.206;23.550;2022-08-21T12:18:39;96341.16;;;29.04;68.62
21361;BME280;10839;43.206;23.550;2022-08-21T12:21:21;96336.66;;;28.91;68.70
21361;BME280;10839;43.206;23.550;2022-08-21T12:24:04;96330.19;;;28.70;67.86
21361;BME280;10839;43.206;23.550;2022-08-21T12:26:35;96343.66;;;28.88;66.51
21361;BME280;10839;43.206;23.550;2022-08-21T12:29:22;96329.41;;;29.07;66.78
21361;BME280;10839;43.206;23.550;2022-08-21T12:34:29;96336.31;;;29.39;63.43
21361;BME280;10839;43.206;23.550;2022-08-21T12:37:00;96339.41;;;29.37;61.54
21361;BME280;10839;43.206;23.550;2022-08-21T12:39:31;96336.00;;;29.69;61.64
21361;BME280;10839;43.206;23.550;2022-08-21T12:44:47;96335.84;;;29.28;65.72
21361;BME280;10839;43.206;23.550;2022-08-21T12:47:22;96325.59;;;29.29;61.79
21361;BME280;10839;43.206;23.550;2022-08-21T12:49:56;96320.09;;;29.49;63.35
21361;BME280;10839;43.206;23.550;2022-08-21T12:52:34;96326.28;;;29.46;64.63
21361;BME280;10839;43.206;23.550;2022-08-21T12:55:01;96323.09;;;29.65;67.59
21361;BME280;10839;43.206;23.550;2022-08-21T12:57:29;96327.34;;;29.71;69.70
21361;BME280;10839;43.206;23.550;2022-08-21T13:00:03;96333.31;;;29.73;69.07
21361;BME280;10839;43.206;23.550;2022-08-21T13:02:35;96328.13;;;29.42;67.48
21361;BME280;10839;43.206;23.550;2022-08-21T13:05:07;96329.84;;;29.55;65.03
21361;BME280;10839;43.206;23.550;2022-08-21T13:07:36;96328.09;;;29.51;64.25
21361;BME280;10839;43.206;23.550;2022-08-21T13:10:24;96321.91;;;29.45;62.39
21361;BME280;10839;43.206;23.550;2022-08-21T13:12:55;96315.56;;;29.74;61.55
21361;BME280;10839;43.206;23.550;2022-08-21T13:15:28;96322.03;;;29.78;62.34
21361;BME280;10839;43.206;23.550;2022-08-21T13:17:55;96331.25;;;29.90;62.64
21361;BME280;10839;43.206;23.550;2022-08-21T13:20:36;96325.84;;;29.73;61.77
21361;BME280;10839;43.206;23.550;2022-08-21T13:23:16;96321.44;;;29.72;61.73
21361;BME280;10839;43.206;23.550;2022-08-21T13:25:44;96319.28;;;29.98;62.07
21361;BME280;10839;43.206;23.550;2022-08-21T13:28:12;96327.09;;;30.26;61.79
21361;BME280;10839;43.206;23.550;2022-08-21T13:30:47;96324.22;;;30.14;62.30
21361;BME280;10839;43.206;23.550;2022-08-21T13:33:18;96327.34;;;30.33;61.77
21361;BME280;10839;43.206;23.550;2022-08-21T13:36:01;96313.38;;;30.21;62.92
21361;BME280;10839;43.206;23.550;2022-08-21T13:38:33;96308.66;;;30.00;64.08
21361;BME280;10839;43.206;23.550;2022-08-21T13:43:50;96314.19;;;30.00;63.90
21361;BME280;10839;43.206;23.550;2022-08-21T13:46:24;96311.72;;;30.20;61.89
21361;BME280;10839;43.206;23.550;2022-08-21T13:48:53;96300.88;;;29.73;62.47
21361;BME280;10839;43.206;23.550;2022-08-21T13:51:20;96302.97;;;30.18;61.38
21361;BME280;10839;43.206;23.550;2022-08-21T13:53:49;96297.69;;;30.25;60.56
21361;BME280;10839;43.206;23.550;2022-08-21T13:58:56;96289.22;;;30.00;60.73
21361;BME280;10839;43.206;23.550;2022-08-21T14:01:27;96298.22;;;29.97;60.44
21361;BME280;10839;43.206;23.550;2022-08-21T14:03:57;96291.72;;;29.93;59.98
21361;BME280;10839;43.206;23.550;2022-08-21T14:06:27;96284.00;;;29.78;59.12
21361;BME280;10839;43.206;23.550;2022-08-21T14:08:58;96287.66;;;29.70;59.94
21361;BME280;10839;43.206;23.550;2022-08-21T14:11:26;96282.41;;;29.77;60.04